Anapolis, Brazil

11:36 AM BRST on October 21, 2014 (GMT -0200)
Anapolis Air Base | Change Station
CLOSE
Current Station
Airport
Location: Anapolis,
Elevation: 3730 ft
Nearby Weather Stations

Elev 3730 ft 16.23 °S, 48.96 °W | Updated 36 minutes ago

Clear
Clear
81 °F
Feels Like 81 °F
N
7
Wind Variable Wind from ENE

Today
High -- | Low -- °F
--% Chance of Precip.
Yesterday
High -- | Low -- °F
Precip. -- in
6:44 AM 7:16 PM
Waning Crescent, 5% visible
Pressure 30.12 in
Visibility -9999.0 miles
Clouds
Heat Index 81 °F
Dew Point 59 °F
Humidity 48%
Rainfall 0.00 in
Snow Depth Not available.
UV Not available.
Pollen Not available.
Air Quality Not available.
Flu Activity Not available.
METAR SBAN 211300Z 07006KT CAVOK 27/15 Q1020

More Conditions Fewer Conditions

Pressure 30.12 in
Visibility -9999.0 miles
Clouds
Heat Index 81 °F
Dew Point 59 °F
Humidity 48%
Rainfall 0.00 in
Snow Depth Not available.
UV Not available.
Pollen Not available.
Air Quality Not available.
Flu Activity Not available.
METAR SBAN 211300Z 07006KT CAVOK 27/15 Q1020

More Conditions Fewer Conditions

10-Day Weather Forecast

Almanac

Astronomy

Oct. 21, 2014 Rise Set
Actual Time 6:44 AM BRST 7:16 PM BRST
Civil Twilight 6:22 AM BRST 7:38 PM BRST
Nautical Twilight 5:56 AM BRST 8:04 PM BRST
Astronomical Twilight 5:30 AM BRST 8:30 PM BRST
Moon 5:06 AM BRST 5:31 PM BRST
Length of Visible Light 13h 16m
Length of Day
12h 32m
Tomorrow will be 0m 53s longer.
Waning Crescent, 5% of the Moon is Illuminated
Today
Waning Crescent
Oct 23
New
Oct 30
First Quarter
Nov 6
Full
Nov 14
Last Quarter

Yesterday's Extremes

Country Highs Country Lows

Community

WunderPhotos

Upload Photos

1,763,662 photos uploaded!

Nearby

Snow Depth

Not available.

Earthquake Activity

City Distance Mag. Time & Date
No recent earthquake activity has been reported nearby.
Minimum magnitude displayed is 2.5.

Coastal Water Temperatures

Place Temperature
No Stations Reporting

Nearby Weather Stations